sensor_id;sensor_type;location;lat;lon;timestamp;P1;durP1;ratioP1;P2;durP2;ratioP2
25391;SDS011;13329;48.402;11.718;2023-03-13T00:01:27;3.23;;;1.73;;
25391;SDS011;13329;48.402;11.718;2023-03-13T00:03:53;2.17;;;1.55;;
25391;SDS011;13329;48.402;11.718;2023-03-13T00:06:19;2.28;;;1.45;;
25391;SDS011;13329;48.402;11.718;2023-03-13T00:08:44;4.88;;;1.42;;
25391;SDS011;13329;48.402;11.718;2023-03-13T00:11:10;4.65;;;1.73;;
25391;SDS011;13329;48.402;11.718;2023-03-13T00:13:36;3.42;;;1.58;;
25391;SDS011;13329;48.402;11.718;2023-03-13T00:16:02;3.33;;;1.80;;
25391;SDS011;13329;48.402;11.718;2023-03-13T00:18:27;4.25;;;1.85;;
25391;SDS011;13329;48.402;11.718;2023-03-13T00:23:47;4.75;;;1.98;;
25391;SDS011;13329;48.402;11.718;2023-03-13T00:26:13;3.33;;;2.05;;
25391;SDS011;13329;48.402;11.718;2023-03-13T00:28:39;4.80;;;1.90;;
25391;SDS011;13329;48.402;11.718;2023-03-13T00:33:33;3.40;;;1.80;;
25391;SDS011;13329;48.402;11.718;2023-03-13T00:36:03;3.25;;;2.05;;
25391;SDS011;13329;48.402;11.718;2023-03-13T00:38:29;2.97;;;1.48;;
25391;SDS011;13329;48.402;11.718;2023-03-13T00:40:57;2.95;;;1.67;;
25391;SDS011;13329;48.402;11.718;2023-03-13T00:43:22;6.28;;;2.20;;
25391;SDS011;13329;48.402;11.718;2023-03-13T00:45:48;14.13;;;5.10;;
25391;SDS011;13329;48.402;11.718;2023-03-13T00:48:13;8.57;;;3.83;;
25391;SDS011;13329;48.402;11.718;2023-03-13T00:50:38;3.53;;;2.33;;
25391;SDS011;13329;48.402;11.718;2023-03-13T00:53:03;5.70;;;2.40;;
25391;SDS011;13329;48.402;11.718;2023-03-13T00:55:28;7.00;;;2.40;;
25391;SDS011;13329;48.402;11.718;2023-03-13T00:57:53;6.45;;;2.60;;
25391;SDS011;13329;48.402;11.718;2023-03-13T01:00:19;6.10;;;2.72;;
25391;SDS011;13329;48.402;11.718;2023-03-13T01:02:44;6.28;;;2.38;;
25391;SDS011;13329;48.402;11.718;2023-03-13T01:05:09;3.85;;;1.90;;
25391;SDS011;13329;48.402;11.718;2023-03-13T01:07:34;6.07;;;2.00;;
25391;SDS011;13329;48.402;11.718;2023-03-13T01:09:59;2.67;;;1.50;;
25391;SDS011;13329;48.402;11.718;2023-03-13T01:12:24;2.73;;;1.50;;
25391;SDS011;13329;48.402;11.718;2023-03-13T01:14:50;2.73;;;1.40;;
25391;SDS011;13329;48.402;11.718;2023-03-13T01:17:15;3.90;;;1.30;;
25391;SDS011;13329;48.402;11.718;2023-03-13T01:19:40;4.00;;;1.57;;
25391;SDS011;13329;48.402;11.718;2023-03-13T01:22:05;5.07;;;1.40;;
25391;SDS011;13329;48.402;11.718;2023-03-13T01:24:35;4.25;;;1.60;;
25391;SDS011;13329;48.402;11.718;2023-03-13T01:27:00;2.63;;;1.67;;
25391;SDS011;13329;48.402;11.718;2023-03-13T01:29:25;2.10;;;1.37;;
25391;SDS011;13329;48.402;11.718;2023-03-13T01:31:50;2.65;;;1.30;;
25391;SDS011;13329;48.402;11.718;2023-03-13T01:34:15;2.85;;;1.40;;
25391;SDS011;13329;48.402;11.718;2023-03-13T01:36:41;1.50;;;1.13;;
25391;SDS011;13329;48.402;11.718;2023-03-13T01:39:07;3.55;;;1.50;;
25391;SDS011;13329;48.402;11.718;2023-03-13T01:41:32;3.03;;;1.63;;
25391;SDS011;13329;48.402;11.718;2023-03-13T01:43:58;3.23;;;1.50;;
25391;SDS011;13329;48.402;11.718;2023-03-13T01:46:24;2.45;;;1.30;;
25391;SDS011;13329;48.402;11.718;2023-03-13T01:51:20;2.40;;;1.20;;
25391;SDS011;13329;48.402;11.718;2023-03-13T01:53:47;2.58;;;1.40;;
25391;SDS011;13329;48.402;11.718;2023-03-13T01:56:14;2.70;;;1.50;;
25391;SDS011;13329;48.402;11.718;2023-03-13T01:58:41;3.45;;;1.40;;
25391;SDS011;13329;48.402;11.718;2023-03-13T02:01:06;2.17;;;1.33;;
25391;SDS011;13329;48.402;11.718;2023-03-13T02:03:33;2.60;;;1.60;;
25391;SDS011;13329;48.402;11.718;2023-03-13T02:05:59;2.92;;;1.60;;
25391;SDS011;13329;48.402;11.718;2023-03-13T02:08:49;3.10;;;1.73;;
25391;SDS011;13329;48.402;11.718;2023-03-13T02:13:41;1.95;;;1.55;;
25391;SDS011;13329;48.402;11.718;2023-03-13T02:16:07;1.75;;;1.33;;
25391;SDS011;13329;48.402;11.718;2023-03-13T02:18:33;5.35;;;1.60;;
25391;SDS011;13329;48.402;11.718;2023-03-13T02:21:10;3.05;;;1.55;;
25391;SDS011;13329;48.402;11.718;2023-03-13T02:23:41;1.92;;;1.27;;
25391;SDS011;13329;48.402;11.718;2023-03-13T02:26:08;2.25;;;1.23;;
25391;SDS011;13329;48.402;11.718;2023-03-13T02:28:34;2.77;;;1.20;;
25391;SDS011;13329;48.402;11.718;2023-03-13T02:31:03;1.23;;;1.13;;
25391;SDS011;13329;48.402;11.718;2023-03-13T02:33:29;3.57;;;1.67;;
25391;SDS011;13329;48.402;11.718;2023-03-13T02:35:55;3.60;;;1.40;;
25391;SDS011;13329;48.402;11.718;2023-03-13T02:38:23;2.50;;;1.42;;
25391;SDS011;13329;48.402;11.718;2023-03-13T02:40:48;2.05;;;1.33;;
25391;SDS011;13329;48.402;11.718;2023-03-13T02:43:17;2.75;;;1.40;;
25391;SDS011;13329;48.402;11.718;2023-03-13T02:46:07;2.25;;;1.55;;
25391;SDS011;13329;48.402;11.718;2023-03-13T02:48:30;2.97;;;1.30;;
25391;SDS011;13329;48.402;11.718;2023-03-13T02:50:56;3.83;;;1.80;;
25391;SDS011;13329;48.402;11.718;2023-03-13T02:53:22;1.48;;;1.30;;
25391;SDS011;13329;48.402;11.718;2023-03-13T02:55:47;1.70;;;1.20;;
25391;SDS011;13329;48.402;11.718;2023-03-13T02:58:12;2.53;;;1.45;;
25391;SDS011;13329;48.402;11.718;2023-03-13T03:00:37;2.47;;;1.47;;
25391;SDS011;13329;48.402;11.718;2023-03-13T03:03:02;4.17;;;1.67;;
25391;SDS011;13329;48.402;11.718;2023-03-13T03:05:28;3.03;;;1.57;;
25391;SDS011;13329;48.402;11.718;2023-03-13T03:07:53;2.23;;;1.20;;
25391;SDS011;13329;48.402;11.718;2023-03-13T03:10:18;3.42;;;1.42;;
25391;SDS011;13329;48.402;11.718;2023-03-13T03:12:43;2.67;;;1.42;;
25391;SDS011;13329;48.402;11.718;2023-03-13T03:15:09;2.70;;;1.17;;
25391;SDS011;13329;48.402;11.718;2023-03-13T03:17:34;2.92;;;1.30;;
25391;SDS011;13329;48.402;11.718;2023-03-13T03:19:59;3.40;;;1.60;;
25391;SDS011;13329;48.402;11.718;2023-03-13T03:22:24;1.53;;;1.23;;
25391;SDS011;13329;48.402;11.718;2023-03-13T03:24:50;1.63;;;1.10;;
25391;SDS011;13329;48.402;11.718;2023-03-13T03:27:15;4.93;;;1.30;;
25391;SDS011;13329;48.402;11.718;2023-03-13T03:29:40;3.67;;;1.50;;
25391;SDS011;13329;48.402;11.718;2023-03-13T03:32:05;2.87;;;1.53;;
25391;SDS011;13329;48.402;11.718;2023-03-13T03:34:31;3.17;;;1.90;;
25391;SDS011;13329;48.402;11.718;2023-03-13T03:36:56;2.63;;;1.50;;
25391;SDS011;13329;48.402;11.718;2023-03-13T03:39:21;4.35;;;1.38;;
25391;SDS011;13329;48.402;11.718;2023-03-13T03:41:47;2.10;;;1.40;;
25391;SDS011;13329;48.402;11.718;2023-03-13T03:44:12;1.30;;;1.07;;
25391;SDS011;13329;48.402;11.718;2023-03-13T03:46:37;1.73;;;1.30;;
25391;SDS011;13329;48.402;11.718;2023-03-13T03:49:02;4.32;;;1.52;;
25391;SDS011;13329;48.402;11.718;2023-03-13T03:51:27;5.43;;;1.67;;
25391;SDS011;13329;48.402;11.718;2023-03-13T03:53:52;5.53;;;1.30;;
25391;SDS011;13329;48.402;11.718;2023-03-13T03:56:18;4.57;;;1.77;;
25391;SDS011;13329;48.402;11.718;2023-03-13T03:58:44;3.53;;;1.60;;
25391;SDS011;13329;48.402;11.718;2023-03-13T04:01:09;2.97;;;1.20;;
25391;SDS011;13329;48.402;11.718;2023-03-13T04:03:34;4.83;;;1.50;;
25391;SDS011;13329;48.402;11.718;2023-03-13T04:05:59;4.17;;;1.40;;
25391;SDS011;13329;48.402;11.718;2023-03-13T04:08:24;2.57;;;1.30;;
25391;SDS011;13329;48.402;11.718;2023-03-13T04:10:50;1.90;;;1.30;;
25391;SDS011;13329;48.402;11.718;2023-03-13T04:13:15;3.45;;;1.77;;
25391;SDS011;13329;48.402;11.718;2023-03-13T04:15:40;3.03;;;1.37;;
25391;SDS011;13329;48.402;11.718;2023-03-13T04:18:06;3.00;;;1.42;;
25391;SDS011;13329;48.402;11.718;2023-03-13T04:20:31;1.15;;;0.95;;
25391;SDS011;13329;48.402;11.718;2023-03-13T04:22:56;3.33;;;1.50;;
25391;SDS011;13329;48.402;11.718;2023-03-13T04:25:21;2.20;;;1.23;;
25391;SDS011;13329;48.402;11.718;2023-03-13T04:27:46;4.60;;;1.27;;
25391;SDS011;13329;48.402;11.718;2023-03-13T04:30:11;2.00;;;1.40;;
25391;SDS011;13329;48.402;11.718;2023-03-13T04:32:37;3.17;;;1.37;;
25391;SDS011;13329;48.402;11.718;2023-03-13T04:35:02;1.47;;;1.13;;
25391;SDS011;13329;48.402;11.718;2023-03-13T04:37:27;2.20;;;1.40;;
25391;SDS011;13329;48.402;11.718;2023-03-13T04:39:52;2.33;;;1.23;;
25391;SDS011;13329;48.402;11.718;2023-03-13T04:42:17;2.28;;;1.15;;
25391;SDS011;13329;48.402;11.718;2023-03-13T04:44:43;2.20;;;1.10;;
25391;SDS011;13329;48.402;11.718;2023-03-13T04:47:08;1.37;;;1.03;;
25391;SDS011;13329;48.402;11.718;2023-03-13T04:49:33;1.13;;;1.00;;
25391;SDS011;13329;48.402;11.718;2023-03-13T04:51:59;2.63;;;1.02;;
25391;SDS011;13329;48.402;11.718;2023-03-13T04:54:24;1.47;;;1.07;;
25391;SDS011;13329;48.402;11.718;2023-03-13T04:56:49;2.50;;;1.10;;
25391;SDS011;13329;48.402;11.718;2023-03-13T04:59:14;2.40;;;0.93;;
25391;SDS011;13329;48.402;11.718;2023-03-13T05:01:40;1.97;;;1.27;;
25391;SDS011;13329;48.402;11.718;2023-03-13T05:04:05;1.75;;;1.20;;
25391;SDS011;13329;48.402;11.718;2023-03-13T05:06:30;2.08;;;1.10;;
25391;SDS011;13329;48.402;11.718;2023-03-13T05:08:56;2.33;;;0.95;;
25391;SDS011;13329;48.402;11.718;2023-03-13T05:11:21;1.97;;;0.83;;
25391;SDS011;13329;48.402;11.718;2023-03-13T05:13:47;1.63;;;1.10;;
25391;SDS011;13329;48.402;11.718;2023-03-13T05:16:12;1.45;;;0.93;;
25391;SDS011;13329;48.402;11.718;2023-03-13T05:18:37;2.27;;;1.23;;
25391;SDS011;13329;48.402;11.718;2023-03-13T05:21:03;5.07;;;1.10;;
25391;SDS011;13329;48.402;11.718;2023-03-13T05:23:28;1.20;;;0.90;;
25391;SDS011;13329;48.402;11.718;2023-03-13T05:25:53;1.17;;;0.87;;
25391;SDS011;13329;48.402;11.718;2023-03-13T05:28:18;1.77;;;0.90;;
25391;SDS011;13329;48.402;11.718;2023-03-13T05:30:44;1.67;;;0.80;;
25391;SDS011;13329;48.402;11.718;2023-03-13T05:33:09;1.58;;;1.00;;
25391;SDS011;13329;48.402;11.718;2023-03-13T05:35:34;1.30;;;0.70;;
25391;SDS011;13329;48.402;11.718;2023-03-13T05:37:59;1.27;;;0.90;;
25391;SDS011;13329;48.402;11.718;2023-03-13T05:40:25;1.75;;;0.82;;
25391;SDS011;13329;48.402;11.718;2023-03-13T05:42:50;4.90;;;0.77;;
25391;SDS011;13329;48.402;11.718;2023-03-13T05:45:15;1.50;;;1.00;;
25391;SDS011;13329;48.402;11.718;2023-03-13T05:47:40;1.40;;;0.80;;
25391;SDS011;13329;48.402;11.718;2023-03-13T05:50:06;1.97;;;0.90;;
25391;SDS011;13329;48.402;11.718;2023-03-13T05:52:31;4.70;;;1.63;;
25391;SDS011;13329;48.402;11.718;2023-03-13T05:54:57;2.22;;;1.40;;
25391;SDS011;13329;48.402;11.718;2023-03-13T05:57:22;1.67;;;1.00;;
25391;SDS011;13329;48.402;11.718;2023-03-13T05:59:47;2.23;;;1.10;;
25391;SDS011;13329;48.402;11.718;2023-03-13T06:02:12;2.43;;;1.10;;
25391;SDS011;13329;48.402;11.718;2023-03-13T06:04:37;3.13;;;0.80;;
25391;SDS011;13329;48.402;11.718;2023-03-13T06:07:03;4.75;;;1.20;;
25391;SDS011;13329;48.402;11.718;2023-03-13T06:09:28;2.57;;;0.80;;
25391;SDS011;13329;48.402;11.718;2023-03-13T06:11:53;2.63;;;0.97;;
25391;SDS011;13329;48.402;11.718;2023-03-13T06:14:18;2.00;;;0.87;;
25391;SDS011;13329;48.402;11.718;2023-03-13T06:16:43;2.53;;;1.00;;
25391;SDS011;13329;48.402;11.718;2023-03-13T06:19:09;1.42;;;0.77;;
25391;SDS011;13329;48.402;11.718;2023-03-13T06:21:34;1.93;;;0.70;;
25391;SDS011;13329;48.402;11.718;2023-03-13T06:23:59;1.10;;;0.80;;
25391;SDS011;13329;48.402;11.718;2023-03-13T06:26:24;2.43;;;0.87;;
25391;SDS011;13329;48.402;11.718;2023-03-13T06:28:50;1.88;;;0.88;;
25391;SDS011;13329;48.402;11.718;2023-03-13T06:31:15;1.77;;;0.90;;
25391;SDS011;13329;48.402;11.718;2023-03-13T06:33:41;0.80;;;0.77;;
25391;SDS011;13329;48.402;11.718;2023-03-13T06:36:06;0.63;;;0.53;;
25391;SDS011;13329;48.402;11.718;2023-03-13T06:38:31;0.63;;;0.50;;
25391;SDS011;13329;48.402;11.718;2023-03-13T06:40:56;1.30;;;0.80;;
25391;SDS011;13329;48.402;11.718;2023-03-13T06:43:22;0.95;;;0.82;;
25391;SDS011;13329;48.402;11.718;2023-03-13T06:45:47;2.67;;;1.10;;
25391;SDS011;13329;48.402;11.718;2023-03-13T06:48:12;1.38;;;1.10;;
25391;SDS011;13329;48.402;11.718;2023-03-13T06:50:38;3.97;;;0.57;;
25391;SDS011;13329;48.402;11.718;2023-03-13T06:53:03;3.65;;;0.77;;
25391;SDS011;13329;48.402;11.718;2023-03-13T06:55:28;0.90;;;0.90;;
25391;SDS011;13329;48.402;11.718;2023-03-13T06:57:53;1.07;;;0.77;;
25391;SDS011;13329;48.402;11.718;2023-03-13T07:00:19;1.57;;;0.70;;
25391;SDS011;13329;48.402;11.718;2023-03-13T07:02:44;1.48;;;0.93;;
25391;SDS011;13329;48.402;11.718;2023-03-13T07:05:09;1.60;;;0.87;;
25391;SDS011;13329;48.402;11.718;2023-03-13T07:07:35;1.23;;;0.77;;
25391;SDS011;13329;48.402;11.718;2023-03-13T07:10:00;0.93;;;0.80;;
25391;SDS011;13329;48.402;11.718;2023-03-13T07:12:25;2.40;;;0.93;;
25391;SDS011;13329;48.402;11.718;2023-03-13T07:14:50;1.47;;;0.67;;
25391;SDS011;13329;48.402;11.718;2023-03-13T07:17:15;1.67;;;0.80;;
25391;SDS011;13329;48.402;11.718;2023-03-13T07:19:40;2.37;;;0.70;;
25391;SDS011;13329;48.402;11.718;2023-03-13T07:22:06;6.13;;;0.80;;
25391;SDS011;13329;48.402;11.718;2023-03-13T07:24:31;2.13;;;1.10;;
25391;SDS011;13329;48.402;11.718;2023-03-13T07:26:56;2.50;;;0.90;;
25391;SDS011;13329;48.402;11.718;2023-03-13T07:29:21;1.00;;;0.60;;
25391;SDS011;13329;48.402;11.718;2023-03-13T07:31:46;0.97;;;0.87;;
25391;SDS011;13329;48.402;11.718;2023-03-13T07:34:11;0.73;;;0.60;;
25391;SDS011;13329;48.402;11.718;2023-03-13T07:36:37;1.90;;;0.60;;
25391;SDS011;13329;48.402;11.718;2023-03-13T07:39:02;2.20;;;1.13;;
25391;SDS011;13329;48.402;11.718;2023-03-13T07:41:27;0.65;;;0.65;;
25391;SDS011;13329;48.402;11.718;2023-03-13T07:43:52;1.07;;;0.60;;
25391;SDS011;13329;48.402;11.718;2023-03-13T07:46:18;1.40;;;0.90;;
25391;SDS011;13329;48.402;11.718;2023-03-13T07:48:43;1.75;;;0.98;;
25391;SDS011;13329;48.402;11.718;2023-03-13T07:51:11;2.60;;;0.93;;
25391;SDS011;13329;48.402;11.718;2023-03-13T07:53:36;3.47;;;0.85;;
25391;SDS011;13329;48.402;11.718;2023-03-13T07:56:03;1.23;;;0.90;;
25391;SDS011;13329;48.402;11.718;2023-03-13T07:58:29;1.35;;;0.70;;
25391;SDS011;13329;48.402;11.718;2023-03-13T08:00:55;2.75;;;1.00;;
25391;SDS011;13329;48.402;11.718;2023-03-13T08:03:21;1.38;;;0.90;;
25391;SDS011;13329;48.402;11.718;2023-03-13T08:05:46;2.60;;;1.15;;
25391;SDS011;13329;48.402;11.718;2023-03-13T08:08:11;1.60;;;0.97;;
25391;SDS011;13329;48.402;11.718;2023-03-13T08:10:37;2.67;;;1.00;;
25391;SDS011;13329;48.402;11.718;2023-03-13T08:13:02;1.55;;;0.90;;
25391;SDS011;13329;48.402;11.718;2023-03-13T08:15:27;0.70;;;0.70;;
25391;SDS011;13329;48.402;11.718;2023-03-13T08:17:53;1.10;;;0.70;;
25391;SDS011;13329;48.402;11.718;2023-03-13T08:20:18;1.17;;;0.77;;
25391;SDS011;13329;48.402;11.718;2023-03-13T08:22:44;1.17;;;0.70;;
25391;SDS011;13329;48.402;11.718;2023-03-13T08:25:10;3.45;;;0.95;;
25391;SDS011;13329;48.402;11.718;2023-03-13T08:27:35;1.30;;;0.70;;
25391;SDS011;13329;48.402;11.718;2023-03-13T08:30:01;0.88;;;0.70;;
25391;SDS011;13329;48.402;11.718;2023-03-13T08:32:26;0.87;;;0.60;;
25391;SDS011;13329;48.402;11.718;2023-03-13T08:34:51;1.52;;;0.70;;
25391;SDS011;13329;48.402;11.718;2023-03-13T08:37:16;1.77;;;0.80;;
25391;SDS011;13329;48.402;11.718;2023-03-13T08:39:41;1.00;;;0.90;;
25391;SDS011;13329;48.402;11.718;2023-03-13T08:42:09;2.58;;;0.77;;
25391;SDS011;13329;48.402;11.718;2023-03-13T08:44:35;1.10;;;0.70;;
25391;SDS011;13329;48.402;11.718;2023-03-13T08:47:00;1.67;;;1.00;;
25391;SDS011;13329;48.402;11.718;2023-03-13T08:49:25;1.17;;;0.80;;
25391;SDS011;13329;48.402;11.718;2023-03-13T08:51:50;0.90;;;0.57;;
25391;SDS011;13329;48.402;11.718;2023-03-13T08:54:15;2.90;;;0.83;;
25391;SDS011;13329;48.402;11.718;2023-03-13T08:56:41;1.70;;;0.90;;
25391;SDS011;13329;48.402;11.718;2023-03-13T08:59:07;0.75;;;0.60;;
25391;SDS011;13329;48.402;11.718;2023-03-13T09:01:33;0.37;;;0.33;;
25391;SDS011;13329;48.402;11.718;2023-03-13T09:03:58;1.85;;;0.70;;
25391;SDS011;13329;48.402;11.718;2023-03-13T09:06:24;4.18;;;0.82;;
25391;SDS011;13329;48.402;11.718;2023-03-13T09:08:49;1.60;;;1.03;;
25391;SDS011;13329;48.402;11.718;2023-03-13T09:11:16;1.20;;;0.68;;
25391;SDS011;13329;48.402;11.718;2023-03-13T09:13:42;2.03;;;0.57;;
25391;SDS011;13329;48.402;11.718;2023-03-13T09:16:08;0.93;;;0.57;;
25391;SDS011;13329;48.402;11.718;2023-03-13T09:18:34;1.08;;;0.52;;
25391;SDS011;13329;48.402;11.718;2023-03-13T09:21:00;1.25;;;0.60;;
25391;SDS011;13329;48.402;11.718;2023-03-13T09:23:25;1.05;;;0.57;;
25391;SDS011;13329;48.402;11.718;2023-03-13T09:25:51;1.60;;;0.57;;
25391;SDS011;13329;48.402;11.718;2023-03-13T09:28:17;1.00;;;0.47;;
25391;SDS011;13329;48.402;11.718;2023-03-13T09:30:42;0.35;;;0.35;;
25391;SDS011;13329;48.402;11.718;2023-03-13T09:33:07;1.60;;;0.40;;
25391;SDS011;13329;48.402;11.718;2023-03-13T09:35:33;1.23;;;0.43;;
25391;SDS011;13329;48.402;11.718;2023-03-13T09:37:58;1.00;;;0.50;;
25391;SDS011;13329;48.402;11.718;2023-03-13T09:40:23;1.45;;;0.40;;
25391;SDS011;13329;48.402;11.718;2023-03-13T09:43:13;1.75;;;0.47;;
25391;SDS011;13329;48.402;11.718;2023-03-13T09:45:40;2.72;;;0.32;;
25391;SDS011;13329;48.402;11.718;2023-03-13T09:50:35;0.57;;;0.20;;
25391;SDS011;13329;48.402;11.718;2023-03-13T09:53:12;0.52;;;0.30;;
25391;SDS011;13329;48.402;11.718;2023-03-13T09:55:38;0.20;;;0.20;;
25391;SDS011;13329;48.402;11.718;2023-03-13T09:58:24;0.47;;;0.30;;
25391;SDS011;13329;48.402;11.718;2023-03-13T10:00:53;0.10;;;0.10;;
25391;SDS011;13329;48.402;11.718;2023-03-13T10:03:26;0.40;;;0.20;;
25391;SDS011;13329;48.402;11.718;2023-03-13T10:06:03;0.88;;;0.30;;
25391;SDS011;13329;48.402;11.718;2023-03-13T10:08:30;1.08;;;0.30;;
25391;SDS011;13329;48.402;11.718;2023-03-13T10:11:02;0.73;;;0.20;;
25391;SDS011;13329;48.402;11.718;2023-03-13T10:16:09;1.15;;;0.38;;
25391;SDS011;13329;48.402;11.718;2023-03-13T10:18:35;0.38;;;0.20;;
25391;SDS011;13329;48.402;11.718;2023-03-13T10:21:11;0.30;;;0.20;;
25391;SDS011;13329;48.402;11.718;2023-03-13T10:23:39;0.45;;;0.17;;
25391;SDS011;13329;48.402;11.718;2023-03-13T10:26:04;1.17;;;0.38;;
25391;SDS011;13329;48.402;11.718;2023-03-13T10:28:30;0.10;;;0.10;;
25391;SDS011;13329;48.402;11.718;2023-03-13T10:33:25;0.40;;;0.20;;
25391;SDS011;13329;48.402;11.718;2023-03-13T10:36:01;0.15;;;0.15;;
25391;SDS011;13329;48.402;11.718;2023-03-13T10:38:27;1.55;;;0.20;;
25391;SDS011;13329;48.402;11.718;2023-03-13T10:40:56;0.82;;;0.30;;
25391;SDS011;13329;48.402;11.718;2023-03-13T10:43:22;0.43;;;0.20;;
25391;SDS011;13329;48.402;11.718;2023-03-13T10:45:49;1.33;;;0.10;;
25391;SDS011;13329;48.402;11.718;2023-03-13T10:48:15;0.93;;;0.20;;
25391;SDS011;13329;48.402;11.718;2023-03-13T10:50:46;0.47;;;0.35;;
25391;SDS011;13329;48.402;11.718;2023-03-13T10:53:19;0.20;;;0.10;;
25391;SDS011;13329;48.402;11.718;2023-03-13T10:55:44;0.10;;;0.10;;
25391;SDS011;13329;48.402;11.718;2023-03-13T10:58:13;0.40;;;0.22;;
25391;SDS011;13329;48.402;11.718;2023-03-13T11:00:41;0.38;;;0.22;;
25391;SDS011;13329;48.402;11.718;2023-03-13T11:03:15;0.43;;;0.20;;
25391;SDS011;13329;48.402;11.718;2023-03-13T11:05:42;0.30;;;0.20;;
25391;SDS011;13329;48.402;11.718;2023-03-13T11:08:10;3.33;;;0.20;;
25391;SDS011;13329;48.402;11.718;2023-03-13T11:10:35;0.47;;;0.20;;
25391;SDS011;13329;48.402;11.718;2023-03-13T11:13:01;0.30;;;0.20;;
25391;SDS011;13329;48.402;11.718;2023-03-13T11:15:31;0.30;;;0.20;;
25391;SDS011;13329;48.402;11.718;2023-03-13T11:18:06;0.30;;;0.20;;
25391;SDS011;13329;48.402;11.718;2023-03-13T11:20:37;0.40;;;0.10;;
25391;SDS011;13329;48.402;11.718;2023-03-13T11:23:19;0.30;;;0.20;;
25391;SDS011;13329;48.402;11.718;2023-03-13T11:28:16;0.40;;;0.20;;
25391;SDS011;13329;48.402;11.718;2023-03-13T11:33:53;0.52;;;0.20;;
25391;SDS011;13329;48.402;11.718;2023-03-13T11:38:31;0.20;;;0.20;;
25391;SDS011;13329;48.402;11.718;2023-03-13T11:51:26;2.00;;;0.73;;
25391;SDS011;13329;48.402;11.718;2023-03-13T11:56:22;1.00;;;0.30;;
25391;SDS011;13329;48.402;11.718;2023-03-13T12:01:31;2.03;;;0.35;;
25391;SDS011;13329;48.402;11.718;2023-03-13T12:04:03;0.45;;;0.25;;
25391;SDS011;13329;48.402;11.718;2023-03-13T12:09:13;5.20;;;0.40;;
25391;SDS011;13329;48.402;11.718;2023-03-13T12:16:52;1.83;;;0.50;;
25391;SDS011;13329;48.402;11.718;2023-03-13T12:24:32;0.85;;;0.50;;
25391;SDS011;13329;48.402;11.718;2023-03-13T12:26:58;0.63;;;0.40;;
25391;SDS011;13329;48.402;11.718;2023-03-13T12:31:52;3.05;;;0.40;;
25391;SDS011;13329;48.402;11.718;2023-03-13T12:34:26;1.40;;;0.50;;
25391;SDS011;13329;48.402;11.718;2023-03-13T12:36:55;3.00;;;0.43;;
25391;SDS011;13329;48.402;11.718;2023-03-13T12:39:33;3.53;;;0.50;;
25391;SDS011;13329;48.402;11.718;2023-03-13T12:42:05;1.77;;;0.70;;
25391;SDS011;13329;48.402;11.718;2023-03-13T12:44:32;1.53;;;0.50;;
25391;SDS011;13329;48.402;11.718;2023-03-13T13:00:16;1.17;;;0.55;;
25391;SDS011;13329;48.402;11.718;2023-03-13T13:02:42;3.15;;;0.73;;
25391;SDS011;13329;48.402;11.718;2023-03-13T13:05:18;1.45;;;0.55;;
25391;SDS011;13329;48.402;11.718;2023-03-13T13:07:44;2.72;;;0.32;;
25391;SDS011;13329;48.402;11.718;2023-03-13T13:10:16;0.50;;;0.50;;
25391;SDS011;13329;48.402;11.718;2023-03-13T13:12:43;0.73;;;0.17;;
25391;SDS011;13329;48.402;11.718;2023-03-13T13:15:19;0.47;;;0.40;;
25391;SDS011;13329;48.402;11.718;2023-03-13T13:20:35;0.85;;;0.30;;
25391;SDS011;13329;48.402;11.718;2023-03-13T13:25:44;0.55;;;0.40;;
25391;SDS011;13329;48.402;11.718;2023-03-13T13:28:11;2.87;;;0.40;;
25391;SDS011;13329;48.402;11.718;2023-03-13T13:30:53;0.98;;;0.40;;
25391;SDS011;13329;48.402;11.718;2023-03-13T13:38:47;2.65;;;0.82;;
25391;SDS011;13329;48.402;11.718;2023-03-13T13:43:38;0.88;;;0.60;;
25391;SDS011;13329;48.402;11.718;2023-03-13T13:46:04;2.47;;;0.45;;
25391;SDS011;13329;48.402;11.718;2023-03-13T13:48:40;4.18;;;0.70;;
25391;SDS011;13329;48.402;11.718;2023-03-13T13:53:54;0.55;;;0.50;;
25391;SDS011;13329;48.402;11.718;2023-03-13T13:56:41;1.20;;;0.43;;
25391;SDS011;13329;48.402;11.718;2023-03-13T14:01:47;0.55;;;0.40;;
25391;SDS011;13329;48.402;11.718;2023-03-13T14:04:17;1.27;;;0.38;;
25391;SDS011;13329;48.402;11.718;2023-03-13T14:06:44;1.58;;;0.77;;
25391;SDS011;13329;48.402;11.718;2023-03-13T14:11:55;1.98;;;0.57;;
25391;SDS011;13329;48.402;11.718;2023-03-13T14:14:20;0.38;;;0.30;;
25391;SDS011;13329;48.402;11.718;2023-03-13T14:16:47;1.40;;;0.50;;
25391;SDS011;13329;48.402;11.718;2023-03-13T14:21:50;0.65;;;0.47;;
25391;SDS011;13329;48.402;11.718;2023-03-13T14:24:21;0.40;;;0.40;;
25391;SDS011;13329;48.402;11.718;2023-03-13T14:26:46;1.13;;;0.60;;
25391;SDS011;13329;48.402;11.718;2023-03-13T14:29:14;0.55;;;0.47;;
25391;SDS011;13329;48.402;11.718;2023-03-13T14:31:40;1.85;;;0.60;;
25391;SDS011;13329;48.402;11.718;2023-03-13T14:34:06;2.90;;;0.60;;
25391;SDS011;13329;48.402;11.718;2023-03-13T14:42:03;1.80;;;0.47;;
25391;SDS011;13329;48.402;11.718;2023-03-13T14:44:30;0.63;;;0.50;;
25391;SDS011;13329;48.402;11.718;2023-03-13T14:46:58;2.30;;;0.85;;
25391;SDS011;13329;48.402;11.718;2023-03-13T14:49:25;1.60;;;0.40;;
25391;SDS011;13329;48.402;11.718;2023-03-13T14:52:01;0.77;;;0.57;;
25391;SDS011;13329;48.402;11.718;2023-03-13T14:54:31;1.52;;;0.50;;
25391;SDS011;13329;48.402;11.718;2023-03-13T14:57:15;1.38;;;0.60;;
25391;SDS011;13329;48.402;11.718;2023-03-13T14:59:41;1.10;;;0.40;;
25391;SDS011;13329;48.402;11.718;2023-03-13T15:02:12;1.42;;;0.63;;
25391;SDS011;13329;48.402;11.718;2023-03-13T15:07:18;2.75;;;0.70;;
25391;SDS011;13329;48.402;11.718;2023-03-13T15:09:44;2.03;;;0.70;;
25391;SDS011;13329;48.402;11.718;2023-03-13T15:12:13;0.65;;;0.50;;
25391;SDS011;13329;48.402;11.718;2023-03-13T15:14:40;2.35;;;0.60;;
25391;SDS011;13329;48.402;11.718;2023-03-13T15:17:24;1.13;;;0.52;;
25391;SDS011;13329;48.402;11.718;2023-03-13T15:19:56;0.68;;;0.43;;
25391;SDS011;13329;48.402;11.718;2023-03-13T15:22:31;0.40;;;0.20;;
25391;SDS011;13329;48.402;11.718;2023-03-13T15:24:57;1.05;;;0.40;;
25391;SDS011;13329;48.402;11.718;2023-03-13T15:27:23;1.35;;;0.50;;
25391;SDS011;13329;48.402;11.718;2023-03-13T15:29:48;1.75;;;0.43;;
25391;SDS011;13329;48.402;11.718;2023-03-13T15:32:33;1.90;;;0.73;;
25391;SDS011;13329;48.402;11.718;2023-03-13T15:34:59;0.90;;;0.60;;
25391;SDS011;13329;48.402;11.718;2023-03-13T15:37:26;1.33;;;0.60;;
25391;SDS011;13329;48.402;11.718;2023-03-13T15:39:53;0.90;;;0.50;;
25391;SDS011;13329;48.402;11.718;2023-03-13T15:42:18;2.25;;;0.45;;
25391;SDS011;13329;48.402;11.718;2023-03-13T15:44:43;1.10;;;0.50;;
25391;SDS011;13329;48.402;11.718;2023-03-13T15:47:10;1.50;;;0.50;;
25391;SDS011;13329;48.402;11.718;2023-03-13T15:49:36;1.10;;;0.52;;
25391;SDS011;13329;48.402;11.718;2023-03-13T15:52:02;1.92;;;0.70;;
25391;SDS011;13329;48.402;11.718;2023-03-13T15:54:27;1.43;;;0.50;;
25391;SDS011;13329;48.402;11.718;2023-03-13T15:56:52;2.10;;;0.60;;
25391;SDS011;13329;48.402;11.718;2023-03-13T15:59:17;1.10;;;0.40;;
25391;SDS011;13329;48.402;11.718;2023-03-13T16:01:43;1.23;;;0.50;;
25391;SDS011;13329;48.402;11.718;2023-03-13T16:04:09;1.83;;;0.70;;
25391;SDS011;13329;48.402;11.718;2023-03-13T16:06:34;0.82;;;0.50;;
25391;SDS011;13329;48.402;11.718;2023-03-13T16:09:00;0.47;;;0.43;;
25391;SDS011;13329;48.402;11.718;2023-03-13T16:11:27;0.43;;;0.30;;
25391;SDS011;13329;48.402;11.718;2023-03-13T16:13:52;14.80;;;7.45;;